createdAt,value
2019-02-25T00:00:34.150Z,42.17
2019-02-25T00:03:03.610Z,41.60
2019-02-25T00:05:34.926Z,42.30
2019-02-25T00:08:04.592Z,40.20
2019-02-25T00:10:34.096Z,41.50
2019-02-25T00:13:03.518Z,44.57
2019-02-25T00:15:32.992Z,42.97
2019-02-25T00:18:02.415Z,38.87
2019-02-25T00:20:31.820Z,41.93
2019-02-25T00:23:01.182Z,49.03
2019-02-25T00:25:32.434Z,43.83
2019-02-25T00:28:01.787Z,45.57
2019-02-25T00:30:31.190Z,45.50
2019-02-25T00:33:00.629Z,47.17
2019-02-25T00:35:30.167Z,47.57
2019-02-25T00:37:59.528Z,47.10
2019-02-25T00:40:29.001Z,48.87
2019-02-25T00:42:58.427Z,50.87
2019-02-25T00:45:27.831Z,45.00
2019-02-25T00:47:57.271Z,49.87
2019-02-25T00:50:26.722Z,47.57
2019-02-25T00:52:56.322Z,43.50
2019-02-25T00:55:25.777Z,42.30
2019-02-25T00:57:55.220Z,45.20
2019-02-25T01:00:26.071Z,46.07
2019-02-25T01:02:55.507Z,46.17
2019-02-25T01:05:25.235Z,46.37
2019-02-25T01:07:54.732Z,42.63
2019-02-25T01:10:24.276Z,43.80
2019-02-25T01:12:55.418Z,48.70
2019-02-25T01:15:24.946Z,49.03
2019-02-25T01:17:54.363Z,53.50
2019-02-25T01:20:23.771Z,59.70
2019-02-25T01:22:53.262Z,52.77
2019-02-25T01:25:22.654Z,52.93
2019-02-25T01:27:52.086Z,51.70
2019-02-25T01:30:21.966Z,56.57
2019-02-25T01:32:51.374Z,53.13
2019-02-25T01:35:20.908Z,55.57
2019-02-25T01:37:50.339Z,56.17
2019-02-25T01:40:19.808Z,48.40
2019-02-25T01:42:49.302Z,53.47
2019-02-25T01:45:21.573Z,53.73
2019-02-25T01:47:50.976Z,55.03
2019-02-25T01:50:20.656Z,55.40
2019-02-25T01:52:51.798Z,58.43
2019-02-25T01:55:21.591Z,58.00
2019-02-25T01:57:50.943Z,58.67
2019-02-25T02:00:33.359Z,60.17
2019-02-25T02:03:02.829Z,63.37
2019-02-25T02:05:45.310Z,62.17
2019-02-25T02:08:14.727Z,71.23
2019-02-25T02:10:44.324Z,76.40
2019-02-25T02:13:14.514Z,82.90
2019-02-25T02:15:44.585Z,81.57
2019-02-25T02:18:14.317Z,81.23
2019-02-25T02:20:43.818Z,78.13
2019-02-25T02:23:13.275Z,61.97
2019-02-25T02:25:42.748Z,66.13
2019-02-25T02:28:12.546Z,64.83
2019-02-25T02:30:42.036Z,68.77
2019-02-25T02:33:12.975Z,64.07
2019-02-25T02:35:42.373Z,59.93
2019-02-25T02:38:11.950Z,69.23
2019-02-25T02:40:41.403Z,67.40
2019-02-25T02:43:10.820Z,66.53
2019-02-25T02:45:43.664Z,61.43
2019-02-25T02:48:21.734Z,62.43
2019-02-25T02:50:51.224Z,63.03
2019-02-25T02:53:20.682Z,67.17
2019-02-25T02:55:50.212Z,62.63
2019-02-25T02:58:19.632Z,56.53
2019-02-25T03:00:49.211Z,53.83
2019-02-25T03:03:18.819Z,52.97
2019-02-25T03:05:48.186Z,52.83
2019-02-25T03:08:17.597Z,57.03
2019-02-25T03:10:48.560Z,54.90
2019-02-25T03:13:18.141Z,52.90
2019-02-25T03:15:47.495Z,45.87
2019-02-25T03:18:17.141Z,46.47
2019-02-25T03:20:46.579Z,44.87
2019-02-25T03:23:16.137Z,49.73
2019-02-25T03:25:47.227Z,55.23
2019-02-25T03:28:16.705Z,52.40
2019-02-25T03:30:46.133Z,58.57
2019-02-25T03:33:15.751Z,55.97
2019-02-25T03:35:45.350Z,53.87
2019-02-25T03:38:14.740Z,53.33
2019-02-25T03:40:44.176Z,53.90
2019-02-25T03:43:13.702Z,53.53
2019-02-25T03:45:43.065Z,51.77
2019-02-25T03:48:12.719Z,50.90
2019-02-25T03:50:42.151Z,50.87
2019-02-25T03:53:11.559Z,49.53
2019-02-25T03:55:41.027Z,49.77
2019-02-25T03:58:10.495Z,51.53
2019-02-25T04:00:39.846Z,49.67
2019-02-25T04:03:09.235Z,54.13
2019-02-25T04:05:38.666Z,53.40
2019-02-25T04:08:08.370Z,55.80
2019-02-25T04:10:37.752Z,57.30
2019-02-25T04:13:07.363Z,57.20
2019-02-25T04:15:41.501Z,59.27
2019-02-25T04:18:11.069Z,61.43
2019-02-25T04:20:40.524Z,56.60
2019-02-25T04:23:10.057Z,52.87
2019-02-25T04:25:39.574Z,58.63
2019-02-25T04:28:09.109Z,51.47
2019-02-25T04:30:38.690Z,51.27
2019-02-25T04:33:08.089Z,54.27
2019-02-25T04:35:37.723Z,51.97
2019-02-25T04:38:07.088Z,47.47
2019-02-25T04:40:36.548Z,49.20
2019-02-25T04:43:06.114Z,46.83
2019-02-25T04:45:35.494Z,44.50
2019-02-25T04:48:04.869Z,50.70
2019-02-25T04:50:34.342Z,51.47
2019-02-25T04:53:04.456Z,46.30
2019-02-25T04:55:33.923Z,47.97
2019-02-25T04:58:03.347Z,46.90
2019-02-25T05:00:32.810Z,48.33
2019-02-25T05:03:02.254Z,41.87
2019-02-25T05:05:31.902Z,40.47
2019-02-25T05:08:01.351Z,40.63
2019-02-25T05:10:31.038Z,40.70
2019-02-25T05:13:07.817Z,42.37
2019-02-25T05:15:37.553Z,40.77
2019-02-25T05:18:06.919Z,47.70
2019-02-25T05:20:36.460Z,48.80
2019-02-25T05:23:06.243Z,46.17
2019-02-25T05:25:35.704Z,47.60
2019-02-25T05:28:05.081Z,47.83
2019-02-25T05:30:34.588Z,43.57
2019-02-25T05:33:04.102Z,43.80
2019-02-25T05:35:35.044Z,44.03
2019-02-25T05:38:05.190Z,44.10
2019-02-25T05:40:34.795Z,44.13
2019-02-25T05:43:04.397Z,38.10
2019-02-25T05:45:34.049Z,34.90
2019-02-25T05:48:05.040Z,37.10
2019-02-25T05:50:34.514Z,40.47
2019-02-25T05:53:04.192Z,43.77
2019-02-25T05:55:33.724Z,41.77
2019-02-25T05:58:03.263Z,44.70
2019-02-25T06:00:35.102Z,40.80
2019-02-25T06:03:04.577Z,38.70
2019-02-25T06:05:33.981Z,40.43
2019-02-25T06:08:03.448Z,42.97
2019-02-25T06:10:32.991Z,44.80
2019-02-25T06:13:02.559Z,42.70
2019-02-25T06:15:32.023Z,37.33
2019-02-25T06:18:01.474Z,42.30
2019-02-25T06:20:31.380Z,41.60
2019-02-25T06:23:00.869Z,51.77
2019-02-25T06:25:31.104Z,51.13
2019-02-25T06:28:00.507Z,55.57
2019-02-25T06:30:30.145Z,58.30
2019-02-25T06:32:59.539Z,56.97
2019-02-25T06:35:29.285Z,57.90
2019-02-25T06:37:59.176Z,53.67
2019-02-25T06:40:28.670Z,50.43
2019-02-25T06:42:58.134Z,49.33
2019-02-25T06:45:38.536Z,52.03
2019-02-25T06:48:08.071Z,47.10
2019-02-25T06:50:37.543Z,50.60
2019-02-25T06:53:07.131Z,53.03
2019-02-25T06:55:36.812Z,51.13
2019-02-25T06:58:06.273Z,49.53
2019-02-25T07:00:35.827Z,48.47
2019-02-25T07:03:05.528Z,46.27
2019-02-25T07:05:41.325Z,46.63
2019-02-25T07:08:12.570Z,45.37
2019-02-25T07:10:43.744Z,39.90
2019-02-25T07:13:31.193Z,41.63
2019-02-25T07:16:08.032Z,37.70
2019-02-25T07:18:55.811Z,42.20
2019-02-25T07:21:43.847Z,38.47
2019-02-25T07:24:15.130Z,42.20
2019-02-25T07:26:51.966Z,43.27
2019-02-25T07:29:32.475Z,40.67
2019-02-25T07:32:03.690Z,38.23
2019-02-25T07:34:51.409Z,32.83
2019-02-25T07:37:22.558Z,37.83
2019-02-25T07:39:56.964Z,32.93
2019-02-25T07:42:31.061Z,33.27
2019-02-25T07:45:07.861Z,30.20
2019-02-25T07:47:47.960Z,30.17
2019-02-25T07:53:30.699Z,33.10
2019-02-25T07:56:10.809Z,31.20
2019-02-25T07:58:42.319Z,29.07
2019-02-25T08:01:29.591Z,27.20
2019-02-25T08:04:13.666Z,27.97
2019-02-25T08:07:01.279Z,28.37
2019-02-25T08:09:35.312Z,27.47
2019-02-25T08:12:06.551Z,28.43
2019-02-25T08:14:37.675Z,27.57
2019-02-25T08:17:18.097Z,26.77
2019-02-25T08:19:57.949Z,31.27
2019-02-25T08:22:41.236Z,28.43
2019-02-25T08:25:30.553Z,28.60
2019-02-25T08:28:17.963Z,28.03
2019-02-25T08:31:03.993Z,27.33
2019-02-25T08:33:40.805Z,24.73
2019-02-25T08:36:14.900Z,23.07
2019-02-25T08:38:57.718Z,27.00
2019-02-25T08:41:28.639Z,26.63
2019-02-25T08:44:00.059Z,22.33
2019-02-25T08:46:31.123Z,21.57
2019-02-25T08:49:11.364Z,19.53
2019-02-25T08:51:40.945Z,19.17
2019-02-25T08:54:10.530Z,17.60
2019-02-25T08:56:40.251Z,19.70
2019-02-25T08:59:09.783Z,17.10
2019-02-25T09:01:39.346Z,17.83
2019-02-25T09:04:08.849Z,17.73
2019-02-25T09:06:38.496Z,16.00
2019-02-25T09:09:08.067Z,16.43
2019-02-25T09:11:37.652Z,16.53
2019-02-25T09:14:07.154Z,16.90
2019-02-25T09:16:36.602Z,17.10
2019-02-25T09:19:05.969Z,18.10
2019-02-25T09:21:35.440Z,16.10
2019-02-25T09:24:05.112Z,16.40
2019-02-25T09:26:34.618Z,16.70
2019-02-25T09:29:04.420Z,16.32
2019-02-25T09:31:33.996Z,18.02
2019-02-25T09:34:03.367Z,16.05
2019-02-25T09:36:32.839Z,16.75
2019-02-25T09:39:02.226Z,15.68
2019-02-25T09:41:31.653Z,15.75
2019-02-25T09:44:01.180Z,16.42
2019-02-25T09:46:32.265Z,14.87
2019-02-25T09:49:01.649Z,14.93
2019-02-25T09:51:31.128Z,16.85
2019-02-25T09:54:00.691Z,15.15
2019-02-25T09:56:30.122Z,15.58
2019-02-25T09:58:59.600Z,15.32
2019-02-25T10:01:28.993Z,16.75
2019-02-25T10:03:58.429Z,15.35
2019-02-25T10:06:27.832Z,17.20
2019-02-25T10:08:58.954Z,18.02
2019-02-25T10:11:41.107Z,16.10
2019-02-25T10:14:10.577Z,14.13
2019-02-25T10:16:40.289Z,14.50
2019-02-25T10:19:09.827Z,14.83
2019-02-25T10:21:39.978Z,12.78
2019-02-25T10:24:09.678Z,14.07
2019-02-25T10:26:39.158Z,13.93
2019-02-25T10:29:08.623Z,13.70
2019-02-25T10:31:39.588Z,12.73
2019-02-25T10:34:09.380Z,14.07
2019-02-25T10:36:38.915Z,13.60
2019-02-25T10:39:13.140Z,13.80
2019-02-25T10:41:43.118Z,14.53
2019-02-25T10:44:12.665Z,13.70
2019-02-25T10:46:42.862Z,13.68
2019-02-25T10:49:14.423Z,13.28
2019-02-25T10:51:45.543Z,13.60
2019-02-25T10:54:16.864Z,13.18
2019-02-25T10:56:49.914Z,14.87
2019-02-25T10:59:19.450Z,14.38
2019-02-25T11:01:50.347Z,13.58
2019-02-25T11:04:21.816Z,13.60
2019-02-25T11:06:52.502Z,14.05
2019-02-25T11:09:23.586Z,13.85
2019-02-25T11:11:54.883Z,13.20
2019-02-25T11:14:24.272Z,14.03
2019-02-25T11:16:54.375Z,12.28
2019-02-25T11:19:24.920Z,12.82
2019-02-25T11:21:55.180Z,12.70
2019-02-25T11:24:25.585Z,13.18
2019-02-25T11:26:56.799Z,12.88
2019-02-25T11:29:26.316Z,13.25
2019-02-25T11:31:55.762Z,13.08
2019-02-25T11:34:25.164Z,13.13
2019-02-25T11:36:56.717Z,12.40
2019-02-25T11:39:27.531Z,16.02
2019-02-25T11:41:57.707Z,11.90
2019-02-25T11:44:31.070Z,12.88
2019-02-25T11:46:58.419Z,11.95
2019-02-25T11:49:27.993Z,13.28
2019-02-25T11:51:57.400Z,12.10
2019-02-25T11:54:26.999Z,12.43
2019-02-25T11:56:56.391Z,12.03
2019-02-25T11:59:25.821Z,11.38
2019-02-25T12:01:55.356Z,11.30
2019-02-25T12:04:24.713Z,11.85
2019-02-25T12:06:54.097Z,12.75
2019-02-25T12:09:23.456Z,12.80
2019-02-25T12:11:52.984Z,12.07
2019-02-25T12:14:22.419Z,12.58
2019-02-25T12:16:51.802Z,12.70
2019-02-25T12:19:21.279Z,12.40
2019-02-25T12:21:50.679Z,12.33
2019-02-25T12:24:20.245Z,12.23
2019-02-25T12:26:49.873Z,12.20
2019-02-25T12:29:19.359Z,12.30
2019-02-25T12:31:48.887Z,10.90
2019-02-25T12:34:18.373Z,11.63
2019-02-25T12:36:47.834Z,13.15
2019-02-25T12:39:17.335Z,10.63
2019-02-25T12:41:46.930Z,10.58
2019-02-25T12:44:16.406Z,11.20
2019-02-25T12:46:45.870Z,11.38
2019-02-25T12:49:15.226Z,10.50
2019-02-25T12:51:44.644Z,10.45
2019-02-25T12:54:14.214Z,10.20
2019-02-25T12:56:43.619Z,10.48
2019-02-25T12:59:12.987Z,10.45
2019-02-25T13:01:42.379Z,9.78
2019-02-25T13:04:11.738Z,10.48
2019-02-25T13:06:41.139Z,9.88
2019-02-25T13:09:12.710Z,10.23
2019-02-25T13:11:42.238Z,11.22
2019-02-25T13:14:11.604Z,11.08
2019-02-25T13:16:41.134Z,10.80
2019-02-25T13:19:10.562Z,11.70
2019-02-25T13:21:40.036Z,11.25
2019-02-25T13:24:09.975Z,11.35
2019-02-25T13:26:39.529Z,13.95
2019-02-25T13:29:08.950Z,10.98
2019-02-25T13:31:38.409Z,10.85
2019-02-25T13:34:07.999Z,11.03
2019-02-25T13:36:37.470Z,11.88
2019-02-25T13:39:07.707Z,10.90
2019-02-25T13:41:37.258Z,12.28
2019-02-25T13:44:06.795Z,10.72
2019-02-25T13:46:36.962Z,11.85
2019-02-25T13:49:06.471Z,11.12
2019-02-25T13:51:35.958Z,11.97
2019-02-25T13:54:05.389Z,11.05
2019-02-25T13:56:34.940Z,12.43
2019-02-25T13:59:05.030Z,11.70
2019-02-25T14:01:34.604Z,11.73
2019-02-25T14:04:04.193Z,12.23
2019-02-25T14:06:33.653Z,12.83
2019-02-25T14:09:04.695Z,13.20
2019-02-25T14:11:34.231Z,13.77
2019-02-25T14:14:03.914Z,14.30
2019-02-25T14:16:33.468Z,13.83
2019-02-25T14:19:02.984Z,14.37
2019-02-25T14:21:34.527Z,15.07
2019-02-25T14:24:03.646Z,15.00
2019-02-25T14:26:33.256Z,14.77
2019-02-25T14:29:02.869Z,13.30
2019-02-25T14:31:32.464Z,14.27
2019-02-25T14:34:04.164Z,14.80
2019-02-25T14:36:33.070Z,14.87
2019-02-25T14:39:04.463Z,14.73
2019-02-25T14:41:33.937Z,15.23
2019-02-25T14:44:04.889Z,14.83
2019-02-25T14:46:34.409Z,15.03
2019-02-25T14:49:04.520Z,16.13
2019-02-25T14:51:35.265Z,17.10
2019-02-25T14:54:05.232Z,16.97
2019-02-25T14:56:34.948Z,15.07
2019-02-25T14:59:07.642Z,17.43
2019-02-25T15:01:35.598Z,14.57
2019-02-25T15:04:06.464Z,11.67
2019-02-25T15:06:36.799Z,10.80
2019-02-25T15:09:09.673Z,11.43
2019-02-25T15:11:38.536Z,10.03
2019-02-25T15:14:10.457Z,10.20
2019-02-25T15:16:39.544Z,10.50
2019-02-25T15:19:09.196Z,9.80
2019-02-25T15:21:38.696Z,10.67
2019-02-25T15:24:08.880Z,8.87
2019-02-25T15:26:42.927Z,9.60
2019-02-25T15:29:11.935Z,9.37
2019-02-25T15:31:46.307Z,9.53
2019-02-25T15:34:17.203Z,9.00
2019-02-25T15:36:48.241Z,11.27
2019-02-25T15:39:18.789Z,11.80
2019-02-25T15:41:49.165Z,11.03
2019-02-25T15:44:19.685Z,10.23
2019-02-25T15:46:49.271Z,10.27
2019-02-25T15:49:19.671Z,14.70
2019-02-25T15:51:50.207Z,12.30
2019-02-25T15:54:19.940Z,12.60
2019-02-25T15:56:49.569Z,11.00
2019-02-25T15:59:19.251Z,10.03
2019-02-25T16:01:49.009Z,10.93
2019-02-25T16:04:20.008Z,11.97
2019-02-25T16:06:51.269Z,12.43
2019-02-25T16:09:23.433Z,12.70
2019-02-25T16:11:52.567Z,12.60
2019-02-25T16:14:23.507Z,12.73
2019-02-25T16:16:53.491Z,13.03
2019-02-25T16:19:23.114Z,13.63
2019-02-25T16:21:54.652Z,13.13
2019-02-25T16:24:24.079Z,13.53
2019-02-25T16:26:54.561Z,13.57
2019-02-25T16:29:25.096Z,15.70
2019-02-25T16:31:55.261Z,14.67
2019-02-25T16:34:25.778Z,16.50
2019-02-25T16:36:56.014Z,15.30
2019-02-25T16:39:26.884Z,14.43
2019-02-25T16:41:56.431Z,14.63
2019-02-25T16:44:26.004Z,15.53
2019-02-25T16:46:55.574Z,14.87
2019-02-25T16:49:25.135Z,15.10
2019-02-25T16:51:57.683Z,15.73
2019-02-25T16:54:27.573Z,16.37
2019-02-25T16:56:57.206Z,16.67
2019-02-25T16:59:26.811Z,18.47
2019-02-25T17:01:58.083Z,19.00
2019-02-25T17:04:31.623Z,20.07
2019-02-25T17:07:00.135Z,21.33
2019-02-25T17:09:31.953Z,22.70
2019-02-25T17:12:04.429Z,24.20
2019-02-25T17:14:33.555Z,24.37
2019-02-25T17:17:03.226Z,26.23
2019-02-25T17:19:32.687Z,30.17
2019-02-25T17:22:02.450Z,30.70
2019-02-25T17:24:36.909Z,35.37
2019-02-25T17:27:09.303Z,36.30
2019-02-25T17:29:39.691Z,39.17
2019-02-25T17:32:10.190Z,42.50
2019-02-25T17:34:40.154Z,43.33
2019-02-25T17:37:12.649Z,45.00
2019-02-25T17:39:42.799Z,43.73
2019-02-25T17:42:12.677Z,48.07
2019-02-25T17:44:42.407Z,44.70
2019-02-25T17:47:13.300Z,44.33
2019-02-25T17:49:43.445Z,44.97
2019-02-25T17:52:14.193Z,46.90
2019-02-25T17:54:44.205Z,42.27
2019-02-25T17:57:14.289Z,42.63
2019-02-25T17:59:44.619Z,43.33
2019-02-25T18:02:15.173Z,40.23
2019-02-25T18:04:44.787Z,41.10
2019-02-25T18:07:14.304Z,39.37
2019-02-25T18:09:44.468Z,37.87
2019-02-25T18:12:15.041Z,42.37
2019-02-25T18:14:45.305Z,41.80
2019-02-25T18:17:17.518Z,42.57
2019-02-25T18:19:47.819Z,45.30
2019-02-25T18:22:18.210Z,45.03
2019-02-25T18:24:47.882Z,45.27
2019-02-25T18:27:19.055Z,45.27
2019-02-25T18:29:50.898Z,42.40
2019-02-25T18:32:21.389Z,42.33
2019-02-25T18:34:52.128Z,42.97
2019-02-25T18:37:22.531Z,41.47
2019-02-25T18:39:53.937Z,40.17
2019-02-25T18:42:23.463Z,40.10
2019-02-25T18:44:53.541Z,39.17
2019-02-25T18:47:25.031Z,38.53
2019-02-25T18:49:56.213Z,40.30
2019-02-25T18:52:27.415Z,41.13
2019-02-25T18:54:59.807Z,38.63
2019-02-25T18:57:30.371Z,43.17
2019-02-25T19:00:01.464Z,40.60
2019-02-25T19:02:35.560Z,43.50
2019-02-25T19:05:13.063Z,42.77
2019-02-25T19:07:41.322Z,46.20
2019-02-25T19:10:12.511Z,47.43
2019-02-25T19:12:43.865Z,43.43
2019-02-25T19:15:37.318Z,45.77
2019-02-25T19:18:09.442Z,42.63
2019-02-25T19:20:41.549Z,48.63
2019-02-25T19:23:13.922Z,45.77
2019-02-25T19:25:45.052Z,44.47
2019-02-25T19:28:18.720Z,46.03
2019-02-25T19:30:46.251Z,47.67
2019-02-25T19:33:19.302Z,46.87
2019-02-25T19:35:48.665Z,49.30
2019-02-25T19:38:18.547Z,48.77
2019-02-25T19:40:51.271Z,50.00
2019-02-25T19:43:19.701Z,54.77
2019-02-25T19:45:49.371Z,58.60
2019-02-25T19:48:19.488Z,53.93
2019-02-25T19:50:51.570Z,44.93
2019-02-25T19:53:21.613Z,50.87
2019-02-25T19:55:53.675Z,48.43
2019-02-25T19:58:24.222Z,51.50
2019-02-25T20:01:00.314Z,53.27
2019-02-25T20:03:25.113Z,57.93
2019-02-25T20:05:56.380Z,57.97
2019-02-25T20:08:26.036Z,63.33
2019-02-25T20:10:55.572Z,59.23
2019-02-25T20:13:24.993Z,60.77
2019-02-25T20:15:55.802Z,57.37
2019-02-25T20:18:25.512Z,58.93
2019-02-25T20:20:55.570Z,67.73
2019-02-25T20:23:26.691Z,71.20
2019-02-25T20:25:57.824Z,71.97
2019-02-25T20:28:27.387Z,76.57
2019-02-25T20:30:56.864Z,79.97
2019-02-25T20:33:30.395Z,83.33
2019-02-25T20:35:58.882Z,83.97
2019-02-25T20:38:29.599Z,74.43
2019-02-25T20:41:00.565Z,82.10
2019-02-25T20:43:32.551Z,79.63
2019-02-25T20:46:04.037Z,82.77
2019-02-25T20:48:33.176Z,89.57
2019-02-25T20:51:04.747Z,88.60
2019-02-25T20:53:34.063Z,84.27
2019-02-25T20:56:03.680Z,83.23
2019-02-25T20:58:33.286Z,77.37
2019-02-25T21:01:05.293Z,71.23
2019-02-25T21:03:33.990Z,74.07
2019-02-25T21:06:03.659Z,66.90
2019-02-25T21:08:35.210Z,72.40
2019-02-25T21:11:10.433Z,75.13
2019-02-25T21:13:38.491Z,71.57
2019-02-25T21:16:10.525Z,75.40
2019-02-25T21:18:40.223Z,88.93
2019-02-25T21:21:11.864Z,91.83
2019-02-25T21:23:40.667Z,88.23
2019-02-25T21:26:11.600Z,88.33
2019-02-25T21:28:42.828Z,105.17
2019-02-25T21:31:16.608Z,171.97
2019-02-25T21:33:47.409Z,116.13
2019-02-25T21:36:16.158Z,109.73
2019-02-25T21:38:47.494Z,98.40
2019-02-25T21:41:17.611Z,86.10
2019-02-25T21:43:49.086Z,87.83
2019-02-25T21:46:21.920Z,81.30
2019-02-25T21:48:53.170Z,84.40
2019-02-25T21:51:20.373Z,77.03
2019-02-25T21:53:49.815Z,80.53
2019-02-25T21:56:20.597Z,76.57
2019-02-25T21:58:50.957Z,84.93
2019-02-25T22:01:21.484Z,84.47
2019-02-25T22:03:52.472Z,84.27
2019-02-25T22:06:24.347Z,75.30
2019-02-25T22:08:54.208Z,70.60
2019-02-25T22:11:24.447Z,69.97
2019-02-25T22:13:53.878Z,73.63
2019-02-25T22:16:24.008Z,68.43
2019-02-25T22:18:56.603Z,65.13
2019-02-25T22:21:27.368Z,65.67
2019-02-25T22:24:00.853Z,67.33
2019-02-25T22:26:29.081Z,71.60
2019-02-25T22:29:01.830Z,72.37
2019-02-25T22:31:32.984Z,77.90
2019-02-25T22:34:02.566Z,71.93
2019-02-25T22:36:32.309Z,72.87
2019-02-25T22:39:03.393Z,71.13
2019-02-25T22:41:32.945Z,72.83
2019-02-25T22:44:04.087Z,68.43
2019-02-25T22:46:36.850Z,66.50
2019-02-25T22:49:05.472Z,65.70
2019-02-25T22:51:37.434Z,65.07
2019-02-25T22:54:10.107Z,65.13
2019-02-25T22:56:39.914Z,77.03
2019-02-25T22:59:09.450Z,77.67
2019-02-25T23:01:39.197Z,77.23
2019-02-25T23:04:11.121Z,72.27
2019-02-25T23:06:42.132Z,70.80
2019-02-25T23:09:14.099Z,69.67
2019-02-25T23:11:44.265Z,68.43
2019-02-25T23:14:15.705Z,68.17
2019-02-25T23:16:45.850Z,64.80
2019-02-25T23:19:18.050Z,70.17
2019-02-25T23:21:47.346Z,64.00
2019-02-25T23:24:16.811Z,61.67
2019-02-25T23:26:46.220Z,71.07
2019-02-25T23:29:17.522Z,68.10
2019-02-25T23:31:46.960Z,69.33
2019-02-25T23:34:17.896Z,67.63
2019-02-25T23:36:49.246Z,67.40
2019-02-25T23:39:18.603Z,70.80
2019-02-25T23:41:49.715Z,68.67
2019-02-25T23:44:20.266Z,67.63
2019-02-25T23:46:55.239Z,69.70
2019-02-25T23:49:27.312Z,72.07
2019-02-25T23:51:52.434Z,72.20
2019-02-25T23:54:23.173Z,73.60
2019-02-25T23:56:55.080Z,70.70
2019-02-25T23:59:26.444Z,72.20
